Time;durP1;ratioP1;P1;durP2;ratioP2;P2;SDS_P1;SDS_P2;PMS_P1;PMS_P2;Temp;Humidity;BMP_temperature;BMP_pressure;BME280_temperature;BME280_humidity;BME280_pressure;Samples;Min_cycle;Max_cycle;Signal;HPM_P1;HPM_P2
2023/07/08 00:02:09;;;;;;;8.13;6.07;;;26.70;44.40;;;;;;5050511;28;20202;-72
2023/07/08 00:04:36;;;;;;;8.53;6.47;;;26.70;44.40;;;;;;5052117;28;20205;-72
2023/07/08 00:07:05;;;;;;;7.57;5.90;;;26.70;44.40;;;;;;5046765;28;20225;-73
2023/07/08 00:09:32;;;;;;;7.30;6.07;;;26.70;44.40;;;;;;5055446;28;20236;-73
2023/07/08 00:11:59;;;;;;;8.13;5.97;;;26.70;44.20;;;;;;5051965;28;20228;-72
2023/07/08 00:14:25;;;;;;;6.83;5.50;;;26.70;44.30;;;;;;5039348;28;20214;-74
2023/07/08 00:16:52;;;;;;;7.43;6.00;;;26.60;44.30;;;;;;5045429;28;20196;-74
2023/07/08 00:19:23;;;;;;;8.30;6.40;;;26.60;44.40;;;;;;5055589;28;20229;-73
2023/07/08 00:21:51;;;;;;;7.03;5.70;;;26.60;44.30;;;;;;5045357;28;20585;-73
2023/07/08 00:24:19;;;;;;;6.50;5.77;;;26.60;44.70;;;;;;5034317;28;20209;-74
2023/07/08 00:26:46;;;;;;;7.93;5.47;;;26.50;44.30;;;;;;5038704;28;20306;-73
2023/07/08 00:29:14;;;;;;;7.30;6.40;;;26.50;44.20;;;;;;5053568;28;20207;-73
2023/07/08 00:31:40;;;;;;;8.53;5.83;;;26.50;44.30;;;;;;5055522;28;20637;-74
2023/07/08 00:34:07;;;;;;;7.73;5.70;;;26.50;44.30;;;;;;5055312;28;20229;-74
2023/07/08 00:36:35;;;;;;;8.13;5.37;;;26.50;44.10;;;;;;5054952;28;20197;-73
2023/07/08 00:39:02;;;;;;;8.57;6.27;;;26.50;44.20;;;;;;5055027;28;20226;-73
2023/07/08 00:41:34;;;;;;;7.90;5.53;;;26.60;44.10;;;;;;5066903;28;20210;-73
2023/07/08 00:44:02;;;;;;;7.70;5.63;;;26.50;44.10;;;;;;5055485;28;20199;-73
2023/07/08 00:46:42;;;;;;;8.60;5.83;;;26.50;44.30;;;;;;5055068;28;20208;-73
2023/07/08 00:49:22;;;;;;;6.93;5.87;;;26.50;44.10;;;;;;5056735;28;20237;-74
2023/07/08 00:51:49;;;;;;;7.57;5.57;;;26.50;44.00;;;;;;5049504;28;20581;-73
2023/07/08 00:54:18;;;;;;;8.97;6.00;;;26.50;44.00;;;;;;5050722;28;20198;-74
2023/07/08 00:56:50;;;;;;;7.70;5.67;;;26.40;44.50;;;;;;5066013;28;20230;-74
2023/07/08 00:59:21;;;;;;;6.57;5.77;;;26.40;44.70;;;;;;5038978;28;20190;-72
2023/07/08 01:01:50;;;;;;;7.53;5.47;;;26.40;44.90;;;;;;5038565;28;20952;-72
2023/07/08 01:04:20;;;;;;;6.73;6.03;;;26.40;45.00;;;;;;5039945;28;20226;-74
2023/07/08 01:06:56;;;;;;;6.97;5.93;;;26.30;44.90;;;;;;5045010;28;20190;-73
2023/07/08 01:09:27;;;;;;;8.80;6.27;;;26.20;45.10;;;;;;5051145;28;20958;-74
2023/07/08 01:11:57;;;;;;;7.47;5.53;;;26.20;45.40;;;;;;5067804;28;20220;-72
2023/07/08 01:14:27;;;;;;;7.30;5.80;;;26.20;45.70;;;;;;5062180;28;20193;-74
2023/07/08 01:16:54;;;;;;;8.87;6.87;;;26.10;45.70;;;;;;5038862;28;20221;-73
2023/07/08 01:19:31;;;;;;;6.73;6.00;;;26.10;45.50;;;;;;5048540;28;20689;-73
2023/07/08 01:22:03;;;;;;;7.83;5.67;;;26.10;45.20;;;;;;5052319;28;20320;-73
2023/07/08 01:24:32;;;;;;;6.57;5.57;;;26.00;45.70;;;;;;5046669;28;20658;-73
2023/07/08 01:27:00;;;;;;;7.37;5.60;;;26.00;45.40;;;;;;5033795;28;20210;-73
2023/07/08 01:29:27;;;;;;;7.87;6.03;;;26.00;46.10;;;;;;5051143;28;20225;-74
2023/07/08 01:31:56;;;;;;;7.10;5.70;;;25.90;46.50;;;;;;5050078;28;20205;-74
2023/07/08 01:34:23;;;;;;;7.37;6.00;;;25.90;46.80;;;;;;5032425;28;20214;-73
2023/07/08 01:36:55;;;;;;;9.47;6.53;;;25.90;46.80;;;;;;5042233;28;20755;-74
2023/07/08 01:39:25;;;;;;;7.97;5.70;;;25.80;46.90;;;;;;4998194;28;20709;-73
2023/07/08 01:41:53;;;;;;;7.63;6.10;;;25.80;46.90;;;;;;5052537;28;20222;-73
2023/07/08 01:44:23;;;;;;;6.93;6.20;;;25.70;47.00;;;;;;5053538;28;20256;-74
2023/07/08 01:46:51;;;;;;;7.93;6.23;;;25.70;47.00;;;;;;5043290;28;20194;-75
2023/07/08 01:49:19;;;;;;;11.17;6.33;;;25.60;46.90;;;;;;5053020;28;20569;-73
2023/07/08 01:51:48;;;;;;;6.57;5.73;;;25.60;46.70;;;;;;5036444;28;20202;-73
2023/07/08 01:54:15;;;;;;;8.33;6.00;;;25.60;46.50;;;;;;5059215;28;20266;-74
2023/07/08 01:56:44;;;;;;;9.43;6.37;;;25.60;46.90;;;;;;5054560;28;20220;-74
2023/07/08 01:59:10;;;;;;;6.87;5.80;;;25.50;47.80;;;;;;5073247;28;20200;-74
2023/07/08 02:01:37;;;;;;;7.70;5.53;;;25.50;47.30;;;;;;5035193;28;20199;-73
2023/07/08 02:04:04;;;;;;;6.97;6.00;;;25.50;47.30;;;;;;5049945;28;20228;-73
2023/07/08 02:06:31;;;;;;;8.17;6.23;;;25.50;47.20;;;;;;5052721;28;20194;-73
2023/07/08 02:08:58;;;;;;;7.37;5.87;;;25.40;47.20;;;;;;5040297;28;20588;-73
2023/07/08 02:11:26;;;;;;;6.00;5.40;;;25.40;47.10;;;;;;5048594;28;20202;-73
2023/07/08 02:13:54;;;;;;;9.27;5.90;;;25.40;47.10;;;;;;5036550;28;20199;-74
2023/07/08 02:16:21;;;;;;;9.33;6.00;;;25.40;46.50;;;;;;5048044;28;20614;-73
2023/07/08 02:18:47;;;;;;;6.57;5.87;;;25.40;46.90;;;;;;5045693;28;20226;-73
2023/07/08 02:21:17;;;;;;;7.13;6.00;;;25.30;46.50;;;;;;5037640;28;20198;-73
2023/07/08 02:23:47;;;;;;;6.77;5.87;;;25.30;46.50;;;;;;5052551;28;20340;-73
2023/07/08 02:26:14;;;;;;;6.57;5.63;;;25.30;46.80;;;;;;5048617;28;20221;-73
2023/07/08 02:28:40;;;;;;;6.90;5.67;;;25.30;46.70;;;;;;5048140;28;20317;-73
2023/07/08 02:31:09;;;;;;;6.87;5.70;;;25.30;46.40;;;;;;5052424;28;20204;-73
2023/07/08 02:33:35;;;;;;;9.17;6.10;;;25.30;46.60;;;;;;5052019;28;20819;-73
2023/07/08 02:36:02;;;;;;;6.93;5.77;;;25.30;46.60;;;;;;5052209;28;20204;-73
2023/07/08 02:38:29;;;;;;;8.23;5.80;;;25.30;46.60;;;;;;5052261;28;20669;-73
2023/07/08 02:40:56;;;;;;;6.23;5.13;;;25.30;46.40;;;;;;5052674;28;20204;-74
2023/07/08 02:43:23;;;;;;;8.40;5.80;;;25.30;46.40;;;;;;5052107;28;20202;-74
2023/07/08 02:45:50;;;;;;;6.23;5.60;;;25.20;46.70;;;;;;5052987;28;20205;-73
2023/07/08 02:48:20;;;;;;;6.87;5.93;;;25.20;46.90;;;;;;5051946;28;20229;-73
2023/07/08 02:50:47;;;;;;;7.63;5.43;;;25.20;47.10;;;;;;5051785;28;20218;-73
2023/07/08 02:53:14;;;;;;;6.80;5.53;;;25.20;47.40;;;;;;5052358;28;20212;-74
2023/07/08 02:55:42;;;;;;;7.97;5.93;;;25.20;47.50;;;;;;5051971;28;20241;-73
2023/07/08 02:58:10;;;;;;;7.37;5.57;;;25.10;47.50;;;;;;5051269;28;20202;-73
2023/07/08 03:00:37;;;;;;;8.37;5.57;;;25.10;47.30;;;;;;5035996;28;20276;-73
2023/07/08 03:03:04;;;;;;;7.30;5.47;;;25.10;47.80;;;;;;5043899;28;20237;-74
2023/07/08 03:05:33;;;;;;;6.63;5.10;;;25.00;47.90;;;;;;5048840;28;20207;-73
2023/07/08 03:08:00;;;;;;;7.33;5.90;;;25.00;48.20;;;;;;5059390;28;20251;-73
2023/07/08 03:10:27;;;;;;;7.83;5.87;;;25.00;48.60;;;;;;5040720;28;20219;-73
2023/07/08 03:12:54;;;;;;;6.60;5.77;;;24.90;49.00;;;;;;5032087;28;20666;-73
2023/07/08 03:15:21;;;;;;;7.83;6.07;;;24.90;49.50;;;;;;5061993;28;20291;-72
2023/07/08 03:17:48;;;;;;;8.43;5.90;;;24.80;49.10;;;;;;5053831;28;20205;-74
2023/07/08 03:20:15;;;;;;;8.10;6.23;;;24.80;48.70;;;;;;5051818;28;20214;-73
2023/07/08 03:22:43;;;;;;;6.93;5.70;;;24.70;48.40;;;;;;5050623;28;20225;-74
2023/07/08 03:25:10;;;;;;;6.50;4.97;;;24.80;48.10;;;;;;5039382;28;20212;-73
2023/07/08 03:27:37;;;;;;;9.70;5.47;;;24.80;47.90;;;;;;5045263;28;20201;-73
2023/07/08 03:30:05;;;;;;;6.53;5.60;;;24.80;48.00;;;;;;5049292;28;20697;-73
2023/07/08 03:32:32;;;;;;;8.57;5.97;;;24.80;48.00;;;;;;5038770;28;20190;-72
2023/07/08 03:34:58;;;;;;;7.27;5.30;;;24.80;47.60;;;;;;5051258;28;20232;-73
2023/07/08 03:37:25;;;;;;;8.30;5.50;;;24.80;47.20;;;;;;5055206;28;20225;-73
2023/07/08 03:39:53;;;;;;;8.17;6.20;;;24.80;47.00;;;;;;5055578;28;20194;-73
2023/07/08 03:42:20;;;;;;;8.33;6.00;;;24.90;46.70;;;;;;5054976;28;20573;-73
2023/07/08 03:44:47;;;;;;;8.83;5.43;;;24.90;46.30;;;;;;5055545;28;20224;-73
2023/07/08 03:47:14;;;;;;;9.60;5.80;;;24.90;46.40;;;;;;5055308;28;20285;-73
2023/07/08 03:49:41;;;;;;;10.23;6.00;;;24.90;46.10;;;;;;5054941;28;20219;-73
2023/07/08 03:52:15;;;;;;;8.33;5.60;;;25.00;46.80;;;;;;5050946;28;20222;-72
2023/07/08 03:54:42;;;;;;;7.47;5.47;;;25.00;46.40;;;;;;5048891;28;20184;-74
2023/07/08 03:57:10;;;;;;;7.13;5.80;;;25.00;46.20;;;;;;5065721;28;20229;-73
2023/07/08 03:59:37;;;;;;;8.17;5.90;;;25.10;46.20;;;;;;5052114;28;20244;-73
2023/07/08 04:02:04;;;;;;;7.27;5.53;;;25.10;46.10;;;;;;5054632;28;20292;-73
2023/07/08 04:04:31;;;;;;;9.03;6.00;;;25.10;46.10;;;;;;5054655;28;20206;-72
2023/07/08 04:06:58;;;;;;;10.37;6.10;;;25.10;46.00;;;;;;5053649;28;20212;-74
2023/07/08 04:09:25;;;;;;;11.17;6.40;;;25.10;46.40;;;;;;5054035;28;20541;-72
2023/07/08 04:11:52;;;;;;;8.73;5.90;;;25.00;46.60;;;;;;5054787;28;20309;-73
2023/07/08 04:14:20;;;;;;;7.80;6.00;;;25.00;47.30;;;;;;5050676;28;20313;-75
2023/07/08 04:16:51;;;;;;;9.73;6.27;;;24.90;47.40;;;;;;5053389;28;20193;-73
2023/07/08 04:19:19;;;;;;;8.07;5.97;;;25.00;47.30;;;;;;5065451;28;20213;-73
2023/07/08 04:21:46;;;;;;;7.97;5.50;;;25.00;47.40;;;;;;5075005;28;20233;-73
2023/07/08 04:24:14;;;;;;;7.83;6.20;;;25.00;47.80;;;;;;5046116;28;20248;-73
2023/07/08 04:26:42;;;;;;;8.80;5.60;;;25.10;47.70;;;;;;5064697;28;20221;-72
2023/07/08 04:29:12;;;;;;;6.97;6.00;;;25.10;48.00;;;;;;5035414;28;20224;-73
2023/07/08 04:31:41;;;;;;;9.07;5.83;;;25.10;48.30;;;;;;5064953;28;20220;-73
2023/07/08 04:34:09;;;;;;;7.50;5.80;;;25.10;48.30;;;;;;5040564;28;20252;-73
2023/07/08 04:36:36;;;;;;;7.70;5.80;;;25.20;49.10;;;;;;5038678;28;20201;-73
2023/07/08 04:39:04;;;;;;;7.77;6.03;;;25.20;49.70;;;;;;5038155;28;20199;-73
2023/07/08 04:41:31;;;;;;;9.43;6.33;;;25.20;49.60;;;;;;5062812;28;20284;-73
2023/07/08 04:44:02;;;;;;;9.57;6.30;;;25.20;49.50;;;;;;5053295;28;20204;-74
2023/07/08 04:46:37;;;;;;;7.57;5.60;;;25.20;48.80;;;;;;5055775;28;20271;-72
2023/07/08 04:49:06;;;;;;;6.67;5.97;;;25.30;48.80;;;;;;5050067;28;20202;-73
2023/07/08 04:51:33;;;;;;;7.47;5.93;;;25.30;49.60;;;;;;5054163;28;20210;-75
2023/07/08 04:54:00;;;;;;;9.13;6.03;;;25.30;49.00;;;;;;5053185;28;20212;-73
2023/07/08 04:56:35;;;;;;;7.70;6.07;;;25.30;49.00;;;;;;5056778;28;20317;-74
2023/07/08 04:59:02;;;;;;;7.67;5.67;;;25.40;49.50;;;;;;5073861;28;20261;-74
2023/07/08 05:01:30;;;;;;;7.77;6.10;;;25.40;50.20;;;;;;5064743;28;20202;-73
2023/07/08 05:03:57;;;;;;;7.77;6.40;;;25.40;49.90;;;;;;5053931;28;20287;-73
2023/07/08 05:06:25;;;;;;;7.53;6.23;;;25.40;49.20;;;;;;5060298;28;20214;-74
2023/07/08 05:08:52;;;;;;;8.03;6.20;;;25.40;49.80;;;;;;5054148;28;20358;-73
2023/07/08 05:11:19;;;;;;;7.87;6.13;;;25.30;49.20;;;;;;5053622;28;20581;-73
2023/07/08 05:13:45;;;;;;;9.33;6.40;;;25.10;49.70;;;;;;5053613;28;20202;-73
2023/07/08 05:16:12;;;;;;;8.67;5.73;;;25.10;50.30;;;;;;5057695;28;20204;-72
2023/07/08 05:18:39;;;;;;;8.17;6.30;;;25.00;49.60;;;;;;5051350;28;20220;-73
2023/07/08 05:21:07;;;;;;;8.17;5.90;;;25.00;49.80;;;;;;5033607;28;20313;-73
2023/07/08 05:23:36;;;;;;;7.17;5.80;;;25.10;50.00;;;;;;5044843;28;20288;-72
2023/07/08 05:26:03;;;;;;;7.17;5.93;;;25.20;50.10;;;;;;5050954;28;20204;-72
2023/07/08 05:28:30;;;;;;;11.30;6.10;;;25.30;50.00;;;;;;5039005;28;20537;-72
2023/07/08 05:30:57;;;;;;;6.73;5.60;;;25.40;50.70;;;;;;5051827;28;20233;-72
2023/07/08 05:33:26;;;;;;;6.70;5.60;;;25.50;51.10;;;;;;5001969;28;20219;-72
2023/07/08 05:35:53;;;;;;;6.93;6.03;;;25.50;50.90;;;;;;5053429;28;20665;-73
2023/07/08 05:38:20;;;;;;;6.70;6.00;;;25.60;50.60;;;;;;5052324;28;20222;-72
2023/07/08 05:40:51;;;;;;;7.40;6.37;;;25.70;50.30;;;;;;5052492;28;20194;-73
2023/07/08 05:43:18;;;;;;;7.37;6.20;;;25.80;50.30;;;;;;5058339;28;20226;-73
2023/07/08 05:45:45;;;;;;;6.70;5.83;;;25.90;50.40;;;;;;5052292;28;20541;-73
2023/07/08 05:48:12;;;;;;;7.57;6.10;;;26.10;50.10;;;;;;5038225;28;20581;-74
2023/07/08 05:50:40;;;;;;;8.70;5.87;;;26.20;49.90;;;;;;5038508;28;20581;-73
2023/07/08 05:53:10;;;;;;;6.13;5.53;;;26.30;50.20;;;;;;5032920;28;20206;-72
2023/07/08 05:55:37;;;;;;;6.97;5.60;;;26.40;50.40;;;;;;5070952;28;20288;-74
2023/07/08 05:58:05;;;;;;;7.27;6.17;;;26.50;50.40;;;;;;5044725;28;20229;-73
2023/07/08 06:00:32;;;;;;;7.67;6.10;;;26.70;50.10;;;;;;5048904;28;20207;-74
2023/07/08 06:02:59;;;;;;;8.17;6.23;;;26.70;49.90;;;;;;5048098;28;20782;-73
2023/07/08 06:05:26;;;;;;;8.07;5.67;;;26.80;51.00;;;;;;5048882;28;20204;-73
2023/07/08 06:07:52;;;;;;;6.40;5.30;;;27.00;51.00;;;;;;5054731;28;20715;-74
2023/07/08 06:10:19;;;;;;;7.97;5.93;;;27.10;50.90;;;;;;5047716;28;20221;-74
2023/07/08 06:12:46;;;;;;;7.67;6.00;;;27.20;50.20;;;;;;5052198;28;20672;-73
2023/07/08 06:15:14;;;;;;;7.13;5.33;;;27.30;51.00;;;;;;5052599;28;20222;-72
2023/07/08 06:17:41;;;;;;;6.57;5.47;;;27.30;50.90;;;;;;5047358;28;20511;-73
2023/07/08 06:20:09;;;;;;;7.93;5.50;;;27.50;50.90;;;;;;5049882;28;20306;-74
2023/07/08 06:22:36;;;;;;;8.93;6.37;;;27.60;51.00;;;;;;5049137;28;20230;-73
2023/07/08 06:25:03;;;;;;;8.27;5.93;;;27.60;50.50;;;;;;5033488;28;20214;-73
2023/07/08 06:27:30;;;;;;;8.23;5.70;;;27.70;50.20;;;;;;5045740;28;20213;-73
2023/07/08 06:29:57;;;;;;;7.33;5.30;;;27.80;50.30;;;;;;5049731;28;20227;-74
2023/07/08 06:32:25;;;;;;;7.30;5.20;;;27.90;51.10;;;;;;5063911;28;20226;-73
2023/07/08 06:34:51;;;;;;;8.63;5.43;;;28.00;51.00;;;;;;5061865;28;20199;-73
2023/07/08 06:37:18;;;;;;;6.70;5.57;;;28.00;50.70;;;;;;5052357;28;20208;-73
2023/07/08 06:39:45;;;;;;;6.90;5.33;;;28.10;51.40;;;;;;5052093;28;20248;-73
2023/07/08 06:42:12;;;;;;;7.47;4.87;;;28.20;51.60;;;;;;5052286;28;20201;-73
2023/07/08 06:44:39;;;;;;;7.03;5.30;;;28.20;50.90;;;;;;5062505;28;20210;-73
2023/07/08 06:47:06;;;;;;;7.00;4.90;;;28.10;50.10;;;;;;5056854;28;20229;-73
2023/07/08 06:49:34;;;;;;;5.77;4.77;;;28.20;50.60;;;;;;5052019;28;20820;-72
2023/07/08 06:52:01;;;;;;;6.00;4.80;;;28.20;50.10;;;;;;5052156;28;20209;-73
2023/07/08 06:54:28;;;;;;;8.27;4.83;;;28.30;50.60;;;;;;5054775;28;20257;-73
2023/07/08 06:56:55;;;;;;;6.30;4.90;;;28.30;51.50;;;;;;5062718;28;20218;-72
2023/07/08 06:59:21;;;;;;;8.13;4.90;;;28.30;50.90;;;;;;5057197;28;20680;-73
2023/07/08 07:01:48;;;;;;;7.60;5.50;;;28.40;50.90;;;;;;5036800;28;20722;-73
2023/07/08 07:04:15;;;;;;;7.37;5.37;;;28.50;51.10;;;;;;5032278;28;20209;-73
2023/07/08 07:06:43;;;;;;;8.37;4.90;;;28.50;51.30;;;;;;5056552;28;20300;-72
2023/07/08 07:09:10;;;;;;;7.80;5.10;;;28.50;51.00;;;;;;5056060;28;20194;-73
2023/07/08 07:11:37;;;;;;;6.87;5.07;;;28.50;51.00;;;;;;5048613;28;20243;-72
2023/07/08 07:14:04;;;;;;;7.73;5.23;;;28.50;51.00;;;;;;5049282;28;20211;-74
2023/07/08 07:16:31;;;;;;;6.73;4.63;;;28.50;51.00;;;;;;5051527;28;20221;-75
2023/07/08 07:19:03;;;;;;;7.70;5.10;;;28.50;51.00;;;;;;5056323;28;20197;-73
2023/07/08 07:21:30;;;;;;;6.57;4.70;;;28.40;51.00;;;;;;5035850;28;20221;-73
2023/07/08 07:23:58;;;;;;;8.60;4.87;;;28.40;51.90;;;;;;5044559;28;20664;-74
2023/07/08 07:26:25;;;;;;;7.47;4.73;;;28.30;51.70;;;;;;5016410;28;20224;-73
2023/07/08 07:28:52;;;;;;;5.57;4.03;;;28.30;52.00;;;;;;5064891;28;20200;-75
2023/07/08 07:31:19;;;;;;;5.40;4.53;;;28.20;52.20;;;;;;5044295;28;20217;-73
2023/07/08 07:33:46;;;;;;;5.57;4.07;;;28.30;52.20;;;;;;5034314;28;20197;-72
2023/07/08 07:36:12;;;;;;;7.83;5.03;;;28.40;52.50;;;;;;5040046;28;20229;-74
2023/07/08 07:38:39;;;;;;;5.63;4.20;;;28.40;52.60;;;;;;5045226;28;20696;-72
2023/07/08 07:41:10;;;;;;;7.57;4.80;;;28.50;52.90;;;;;;5046082;28;20194;-73
2023/07/08 07:43:36;;;;;;;5.90;4.63;;;28.50;52.80;;;;;;5053194;28;20224;-74
2023/07/08 07:46:05;;;;;;;6.30;4.57;;;28.50;52.80;;;;;;5044889;28;20247;-74
2023/07/08 07:48:32;;;;;;;6.80;4.90;;;28.50;53.00;;;;;;5050190;28;20221;-73
2023/07/08 07:50:59;;;;;;;5.87;4.33;;;28.50;52.80;;;;;;5050034;28;20224;-73
2023/07/08 07:53:25;;;;;;;5.20;4.67;;;28.60;53.10;;;;;;5036551;28;20573;-73
2023/07/08 07:55:58;;;;;;;6.00;4.17;;;28.70;53.10;;;;;;5031051;28;20210;-72
2023/07/08 07:58:28;;;;;;;6.30;3.97;;;28.70;53.20;;;;;;5053436;28;20647;-73
2023/07/08 08:00:54;;;;;;;5.30;3.60;;;28.70;53.30;;;;;;5043881;28;20231;-73
2023/07/08 08:03:22;;;;;;;3.90;3.20;;;28.80;53.20;;;;;;5039004;28;20606;-72
2023/07/08 08:05:49;;;;;;;5.07;3.10;;;28.90;53.00;;;;;;5043748;28;20186;-72
2023/07/08 08:08:16;;;;;;;4.77;3.20;;;28.90;52.30;;;;;;5061850;28;20258;-73
2023/07/08 08:10:43;;;;;;;5.43;3.30;;;28.90;52.90;;;;;;5043174;28;20241;-74
2023/07/08 08:13:11;;;;;;;2.90;2.60;;;29.00;52.20;;;;;;5042475;28;20211;-71
2023/07/08 08:15:40;;;;;;;4.63;2.77;;;29.00;51.70;;;;;;5031568;28;20224;-73
2023/07/08 08:18:07;;;;;;;7.57;3.13;;;29.10;51.60;;;;;;5056129;28;20245;-71
2023/07/08 08:20:33;;;;;;;5.13;3.00;;;29.20;51.40;;;;;;5005209;28;20205;-73
2023/07/08 08:23:00;;;;;;;3.33;2.50;;;29.30;51.50;;;;;;5047383;28;20240;-73
2023/07/08 08:25:27;;;;;;;4.33;2.77;;;29.50;50.70;;;;;;5042029;28;20684;-72
2023/07/08 08:27:54;;;;;;;3.40;2.60;;;29.60;49.70;;;;;;5051056;28;20217;-73
2023/07/08 08:30:21;;;;;;;3.57;2.87;;;29.70;49.40;;;;;;5054481;28;20240;-73
2023/07/08 08:32:49;;;;;;;4.27;2.80;;;29.80;49.10;;;;;;5054324;28;20597;-73
2023/07/08 08:35:16;;;;;;;3.03;2.70;;;30.00;48.80;;;;;;5054731;28;20227;-72
2023/07/08 08:37:43;;;;;;;6.03;3.00;;;30.10;49.00;;;;;;5063369;28;20661;-73
2023/07/08 08:40:15;;;;;;;3.23;2.77;;;30.30;48.20;;;;;;5066644;28;20201;-73
2023/07/08 08:42:48;;;;;;;3.53;2.37;;;30.30;46.90;;;;;;5035355;28;20223;-73
2023/07/08 08:45:20;;;;;;;3.83;2.23;;;30.40;45.60;;;;;;5070068;28;20604;-74
2023/07/08 08:47:52;;;;;;;3.27;2.17;;;30.40;44.70;;;;;;5066132;28;20217;-73
2023/07/08 08:50:31;;;;;;;3.87;2.30;;;30.40;44.30;;;;;;5073912;28;20212;-73
2023/07/08 08:53:02;;;;;;;2.53;2.10;;;30.40;44.00;;;;;;5074187;28;20613;-73
2023/07/08 08:55:29;;;;;;;3.47;2.40;;;30.60;44.50;;;;;;5074438;28;20225;-73
2023/07/08 08:58:06;;;;;;;3.07;2.00;;;30.80;44.10;;;;;;5061726;28;20281;-73
2023/07/08 09:00:44;;;;;;;3.07;2.20;;;30.70;43.30;;;;;;5033185;28;20202;-72
2023/07/08 09:03:16;;;;;;;2.53;2.23;;;30.80;43.20;;;;;;5036375;28;20209;-72
2023/07/08 09:05:45;;;;;;;3.40;2.40;;;30.90;43.70;;;;;;5053845;28;20197;-75
2023/07/08 09:08:16;;;;;;;3.27;2.03;;;31.10;43.60;;;;;;5054835;28;20241;-74
2023/07/08 09:10:56;;;;;;;3.27;2.03;;;31.20;43.40;;;;;;5057276;28;20221;-73
2023/07/08 09:13:29;;;;;;;3.40;2.30;;;31.30;43.20;;;;;;5063688;28;20576;-74
2023/07/08 09:16:04;;;;;;;4.30;2.03;;;31.40;43.30;;;;;;5052888;28;20249;-74
2023/07/08 09:18:39;;;;;;;3.40;2.20;;;31.40;42.40;;;;;;5063926;28;20190;-73
2023/07/08 09:21:18;;;;;;;2.07;1.80;;;31.40;43.10;;;;;;5069356;28;20239;-73
2023/07/08 09:23:49;;;;;;;2.20;2.00;;;31.50;42.60;;;;;;5051890;28;20200;-73
2023/07/08 09:26:22;;;;;;;3.07;1.83;;;31.60;42.00;;;;;;5054885;28;20225;-73
2023/07/08 09:28:49;;;;;;;2.50;1.87;;;31.60;41.70;;;;;;5055727;28;20222;-74
2023/07/08 09:31:23;;;;;;;3.13;1.93;;;31.70;41.70;;;;;;5053164;28;20226;-73
2023/07/08 09:33:53;;;;;;;2.73;2.00;;;31.70;40.50;;;;;;5053115;28;20208;-73
2023/07/08 09:36:24;;;;;;;3.87;1.83;;;31.80;40.50;;;;;;5053469;28;20198;-73
2023/07/08 09:38:52;;;;;;;3.57;2.00;;;31.80;40.20;;;;;;5060151;28;20190;-73
2023/07/08 09:41:34;;;;;;;3.73;1.97;;;31.80;40.00;;;;;;5053160;28;20204;-72
2023/07/08 09:44:15;;;;;;;2.43;1.70;;;31.80;39.70;;;;;;5053327;28;20213;-73
2023/07/08 09:46:42;;;;;;;2.97;2.00;;;31.80;40.40;;;;;;5050259;28;20592;-72
2023/07/08 09:49:18;;;;;;;2.63;1.90;;;31.90;40.90;;;;;;5063995;28;20199;-72
2023/07/08 09:51:48;;;;;;;2.97;2.33;;;32.00;41.50;;;;;;5069303;28;20268;-72
2023/07/08 09:54:17;;;;;;;3.77;2.10;;;32.10;41.90;;;;;;5053202;28;20274;-70
2023/07/08 09:56:51;;;;;;;2.00;1.70;;;32.20;41.70;;;;;;5053689;28;20202;-71
2023/07/08 09:59:22;;;;;;;2.73;2.17;;;32.30;41.30;;;;;;5382549;22;20588;-75
2023/07/08 10:01:49;;;;;;;2.60;1.83;;;32.40;40.10;;;;;;5071899;28;20198;-74
2023/07/08 10:04:20;;;;;;;2.77;1.93;;;32.50;40.10;;;;;;5071628;28;20665;-74
2023/07/08 10:06:48;;;;;;;5.33;2.27;;;32.50;40.10;;;;;;5072406;28;20217;-73
2023/07/08 10:09:20;;;;;;;2.33;2.00;;;32.70;40.70;;;;;;5072439;28;20226;-74
2023/07/08 10:11:51;;;;;;;2.77;1.97;;;32.70;40.10;;;;;;5071528;28;20246;-73
2023/07/08 10:14:26;;;;;;;2.90;2.23;;;32.80;39.90;;;;;;5071118;28;20282;-74
2023/07/08 10:16:54;;;;;;;3.43;2.17;;;32.70;39.50;;;;;;5063182;28;20314;-74
2023/07/08 10:19:22;;;;;;;2.57;2.10;;;32.70;40.30;;;;;;5057185;28;20199;-74
2023/07/08 10:21:58;;;;;;;3.00;1.70;;;32.80;40.00;;;;;;5071421;28;20195;-74
2023/07/08 10:24:37;;;;;;;2.40;1.80;;;32.90;39.70;;;;;;5071883;28;20681;-74
2023/07/08 10:27:12;;;;;;;3.10;2.10;;;32.90;39.10;;;;;;5071676;28;20194;-74
2023/07/08 10:29:49;;;;;;;2.60;2.33;;;32.90;39.30;;;;;;5071220;28;20223;-74
2023/07/08 10:32:28;;;;;;;4.73;2.20;;;32.90;39.50;;;;;;5071449;28;20308;-74
2023/07/08 10:35:02;;;;;;;2.20;2.00;;;33.10;39.60;;;;;;5052037;28;20294;-74
2023/07/08 10:37:37;;;;;;;2.43;1.83;;;33.10;39.20;;;;;;5056015;28;20311;-74
2023/07/08 10:40:20;;;;;;;2.70;2.30;;;33.10;39.20;;;;;;5070894;28;20218;-74
2023/07/08 10:43:18;;;;;;;2.97;2.40;;;33.20;40.50;;;;;;5069060;28;20635;-73
2023/07/08 10:45:54;;;;;;;2.80;2.40;;;33.30;40.20;;;;;;5062717;28;20302;-74
2023/07/08 10:48:50;;;;;;;2.97;2.27;;;33.30;40.30;;;;;;5070701;28;20203;-73
2023/07/08 10:51:27;;;;;;;3.27;2.43;;;33.40;40.30;;;;;;5069964;28;20307;-73
2023/07/08 10:54:20;;;;;;;3.63;2.20;;;33.30;40.40;;;;;;5070816;28;20703;-74
2023/07/08 10:56:54;;;;;;;2.87;2.20;;;33.50;40.80;;;;;;5070122;28;20644;-74
2023/07/08 10:59:36;;;;;;;3.50;2.63;;;33.70;42.10;;;;;;5070302;28;20706;-74
2023/07/08 11:02:22;;;;;;;2.53;2.10;;;33.80;41.00;;;;;;5070884;28;20280;-74
2023/07/08 11:05:03;;;;;;;2.83;2.53;;;33.90;40.80;;;;;;5070111;28;20669;-74
2023/07/08 11:07:39;;;;;;;2.97;2.40;;;33.80;40.10;;;;;;5069444;28;20295;-73
2023/07/08 11:10:11;;;;;;;4.87;2.50;;;33.70;40.90;;;;;;5070027;28;20193;-73
2023/07/08 11:12:46;;;;;;;2.47;2.10;;;33.80;40.40;;;;;;5070110;28;20215;-74
2023/07/08 11:15:20;;;;;;;2.27;2.03;;;33.60;39.70;;;;;;5070947;28;20231;-74
2023/07/08 11:17:53;;;;;;;2.87;2.30;;;33.60;40.80;;;;;;5071485;28;20270;-74
2023/07/08 11:20:25;;;;;;;3.00;2.33;;;33.60;39.30;;;;;;5070962;28;20207;-73
2023/07/08 11:22:57;;;;;;;3.53;2.47;;;33.60;39.70;;;;;;5071414;28;20204;-73
2023/07/08 11:25:27;;;;;;;7.13;2.70;;;33.50;39.90;;;;;;5071341;28;20264;-74
2023/07/08 11:28:00;;;;;;;3.43;2.47;;;33.40;39.20;;;;;;5071354;28;20205;-73
2023/07/08 11:30:30;;;;;;;5.53;2.90;;;33.60;39.80;;;;;;5071569;28;20234;-74
2023/07/08 11:33:01;;;;;;;2.63;2.43;;;33.70;40.50;;;;;;5070263;28;20216;-74
2023/07/08 11:35:40;;;;;;;3.20;2.70;;;33.80;39.40;;;;;;5071417;28;20284;-74
2023/07/08 11:38:15;;;;;;;2.67;2.40;;;33.80;39.30;;;;;;5071493;28;20232;-74
2023/07/08 11:40:54;;;;;;;4.60;2.73;;;33.70;39.40;;;;;;5070888;28;20191;-74
2023/07/08 11:43:23;;;;;;;4.97;2.47;;;33.90;38.50;;;;;;5062970;28;20188;-74
2023/07/08 11:45:51;;;;;;;2.63;2.37;;;33.90;38.80;;;;;;5071125;28;20193;-74
2023/07/08 11:48:26;;;;;;;3.20;2.67;;;34.00;40.10;;;;;;5071014;28;20219;-74
2023/07/08 11:50:55;;;;;;;2.90;2.60;;;34.10;38.20;;;;;;5035450;28;20219;-74
2023/07/08 11:53:47;;;;;;;2.83;2.40;;;34.20;38.70;;;;;;5071212;28;20209;-74
2023/07/08 11:56:23;;;;;;;4.27;2.67;;;34.30;40.00;;;;;;5070835;28;20189;-74
2023/07/08 11:59:18;;;;;;;4.33;2.60;;;34.50;38.90;;;;;;5070845;28;20236;-74
2023/07/08 12:01:52;;;;;;;5.97;3.20;;;34.60;38.30;;;;;;5064873;28;20189;-74
2023/07/08 12:04:28;;;;;;;3.97;2.80;;;34.60;38.80;;;;;;5074901;28;20269;-74
2023/07/08 12:07:09;;;;;;;4.57;3.00;;;34.60;38.80;;;;;;5074381;28;20204;-74
2023/07/08 12:09:39;;;;;;;3.90;2.70;;;34.70;38.60;;;;;;5071925;28;20200;-73
2023/07/08 12:12:16;;;;;;;4.30;2.90;;;34.80;39.00;;;;;;5074895;28;20328;-74
2023/07/08 12:14:43;;;;;;;5.07;3.20;;;35.00;38.70;;;;;;5074401;28;20204;-74
2023/07/08 12:17:13;;;;;;;4.70;3.30;;;35.00;38.10;;;;;;5074458;28;20211;-74
2023/07/08 12:19:43;;;;;;;3.97;3.07;;;35.10;39.40;;;;;;5074170;28;20243;-74
2023/07/08 12:22:12;;;;;;;4.40;3.00;;;35.30;39.30;;;;;;5074585;28;20224;-74
2023/07/08 12:24:41;;;;;;;6.17;3.30;;;35.50;39.40;;;;;;5073839;28;20660;-73
2023/07/08 12:27:11;;;;;;;5.27;3.10;;;35.70;38.50;;;;;;5074565;28;20228;-73
2023/07/08 12:29:38;;;;;;;4.23;3.30;;;35.70;38.90;;;;;;5074185;28;20209;-74
2023/07/08 12:32:06;;;;;;;5.73;3.83;;;35.80;39.30;;;;;;5074320;28;20320;-73
2023/07/08 12:34:33;;;;;;;4.43;3.40;;;35.90;37.80;;;;;;5074355;28;20239;-73
2023/07/08 12:37:00;;;;;;;5.43;3.27;;;35.90;36.70;;;;;;5074303;28;20203;-73
2023/07/08 12:39:27;;;;;;;4.47;3.40;;;35.90;37.10;;;;;;5073881;28;20278;-73
2023/07/08 12:41:58;;;;;;;4.43;3.33;;;36.00;37.80;;;;;;5074327;28;20223;-74
2023/07/08 12:44:26;;;;;;;3.73;3.17;;;36.10;37.20;;;;;;5073714;28;20199;-74
2023/07/08 12:46:55;;;;;;;3.87;3.30;;;36.00;36.80;;;;;;5074357;28;20707;-74
2023/07/08 12:49:26;;;;;;;4.37;3.20;;;36.10;36.70;;;;;;5074341;28;20207;-74
2023/07/08 12:51:53;;;;;;;3.87;3.00;;;36.20;36.30;;;;;;5068925;28;20577;-74
2023/07/08 12:54:21;;;;;;;4.47;3.10;;;36.30;35.20;;;;;;5068223;28;20236;-74
2023/07/08 12:56:49;;;;;;;3.37;3.00;;;36.30;35.20;;;;;;5074083;28;20212;-74
2023/07/08 12:59:20;;;;;;;4.63;3.20;;;36.20;35.70;;;;;;5073926;28;20251;-74